createdAt,value
2023-03-19T00:00:30.075Z,276.73
2023-03-19T00:02:57.503Z,223.88
2023-03-19T00:05:24.813Z,258.30
2023-03-19T00:07:51.959Z,163.55
2023-03-19T00:10:19.213Z,255.30
2023-03-19T00:12:46.552Z,230.43
2023-03-19T00:15:14.342Z,143.02
2023-03-19T00:17:43.128Z,253.98
2023-03-19T00:20:11.826Z,123.47
2023-03-19T00:22:40.122Z,116.65
2023-03-19T00:25:08.416Z,117.32
2023-03-19T00:27:36.197Z,133.18
2023-03-19T00:30:04.836Z,114.85
2023-03-19T00:32:33.521Z,76.88
2023-03-19T00:35:00.793Z,153.38
2023-03-19T00:37:28.147Z,130.40
2023-03-19T00:39:55.615Z,502.50
2023-03-19T00:42:22.833Z,360.15
2023-03-19T00:44:49.981Z,143.68
2023-03-19T00:47:17.210Z,198.23
2023-03-19T00:49:44.475Z,164.95
2023-03-19T00:52:11.715Z,238.00
2023-03-19T00:54:38.886Z,157.25
2023-03-19T00:57:06.598Z,160.45
2023-03-19T00:59:33.827Z,125.50
2023-03-19T01:02:01.035Z,148.63
2023-03-19T01:04:28.291Z,255.35
2023-03-19T01:06:55.613Z,165.93
2023-03-19T01:09:22.853Z,101.82
2023-03-19T01:11:50.130Z,157.80
2023-03-19T01:14:17.927Z,134.02
2023-03-19T01:16:46.271Z,126.57
2023-03-19T01:19:14.316Z,122.70
2023-03-19T01:21:46.075Z,119.18
2023-03-19T01:24:14.036Z,109.68
2023-03-19T01:26:41.536Z,92.20
2023-03-19T01:29:08.914Z,520.83
2023-03-19T01:31:36.514Z,137.93
2023-03-19T01:34:04.211Z,101.13
2023-03-19T01:36:31.464Z,88.90
2023-03-19T01:38:58.741Z,72.22
2023-03-19T01:41:26.421Z,98.13
2023-03-19T01:43:53.779Z,82.22
2023-03-19T01:46:27.985Z,100.10
2023-03-19T01:49:03.205Z,64.32
2023-03-19T01:51:32.436Z,56.25
2023-03-19T01:54:01.087Z,79.43
2023-03-19T01:56:33.652Z,56.67
2023-03-19T01:59:22.132Z,58.47
2023-03-19T02:02:01.626Z,60.03
2023-03-19T02:04:30.946Z,68.30
2023-03-19T02:06:58.839Z,80.68
2023-03-19T02:09:27.047Z,61.63
2023-03-19T02:11:54.358Z,64.25
2023-03-19T02:14:21.550Z,72.55
2023-03-19T02:16:49.088Z,56.40
2023-03-19T02:19:19.470Z,64.30
2023-03-19T02:21:46.763Z,61.60
2023-03-19T02:24:17.480Z,77.90
2023-03-19T02:26:45.458Z,109.07
2023-03-19T02:29:12.702Z,69.07
2023-03-19T02:31:40.032Z,64.13
2023-03-19T02:34:10.190Z,61.67
2023-03-19T02:36:45.230Z,53.28
2023-03-19T02:39:32.689Z,88.78
2023-03-19T02:42:00.097Z,85.18
2023-03-19T02:44:27.322Z,76.22
2023-03-19T02:46:54.601Z,58.42
2023-03-19T02:49:21.830Z,65.65
2023-03-19T02:51:49.094Z,66.47
2023-03-19T02:54:16.281Z,58.58
2023-03-19T02:56:43.457Z,67.22
2023-03-19T02:59:10.644Z,51.40
2023-03-19T03:01:37.822Z,101.95
2023-03-19T03:04:05.408Z,104.63
2023-03-19T03:06:32.570Z,149.52
2023-03-19T03:08:59.746Z,115.43
2023-03-19T03:11:27.165Z,97.07
2023-03-19T03:13:54.636Z,69.30
2023-03-19T03:16:22.901Z,123.05
2023-03-19T03:18:50.234Z,144.25
2023-03-19T03:21:20.159Z,85.57
2023-03-19T03:23:48.222Z,79.43
2023-03-19T03:26:15.848Z,83.97
2023-03-19T03:28:43.504Z,73.13
2023-03-19T03:31:10.771Z,61.05
2023-03-19T03:33:38.045Z,69.80
2023-03-19T03:36:05.325Z,144.88
2023-03-19T03:38:32.976Z,77.43
2023-03-19T03:41:00.184Z,90.72
2023-03-19T03:43:27.862Z,109.93
2023-03-19T03:45:55.003Z,138.20
2023-03-19T03:48:22.589Z,95.45
2023-03-19T03:50:49.790Z,110.15
2023-03-19T03:53:17.054Z,61.70
2023-03-19T03:55:44.335Z,65.85
2023-03-19T03:58:13.286Z,69.50
2023-03-19T04:00:40.746Z,63.70
2023-03-19T04:03:08.836Z,55.13
2023-03-19T04:05:37.765Z,61.83
2023-03-19T04:08:05.384Z,54.33
2023-03-19T04:10:33.543Z,49.88
2023-03-19T04:13:01.423Z,65.18
2023-03-19T04:15:28.670Z,57.72
2023-03-19T04:17:55.864Z,57.35
2023-03-19T04:20:26.351Z,47.78
2023-03-19T04:22:53.744Z,49.63
2023-03-19T04:25:20.982Z,47.70
2023-03-19T04:27:48.409Z,41.13
2023-03-19T04:30:15.926Z,43.50
2023-03-19T04:32:44.491Z,68.82
2023-03-19T04:35:12.055Z,46.20
2023-03-19T04:37:39.324Z,50.75
2023-03-19T04:40:06.955Z,45.78
2023-03-19T04:42:34.081Z,55.78
2023-03-19T04:45:01.290Z,55.15
2023-03-19T04:47:28.458Z,54.35
2023-03-19T04:49:55.635Z,42.63
2023-03-19T04:52:22.795Z,51.30
2023-03-19T04:54:49.988Z,45.75
2023-03-19T04:57:17.210Z,59.17
2023-03-19T04:59:44.954Z,57.40
2023-03-19T05:02:12.232Z,46.30
2023-03-19T05:04:39.638Z,47.20
2023-03-19T05:07:07.358Z,35.85
2023-03-19T05:09:34.577Z,52.28
2023-03-19T05:12:01.779Z,55.38
2023-03-19T05:14:29.033Z,48.45
2023-03-19T05:16:56.291Z,56.63
2023-03-19T05:19:23.462Z,52.53
2023-03-19T05:21:50.733Z,42.20
2023-03-19T05:24:17.938Z,47.58
2023-03-19T05:26:46.415Z,46.15
2023-03-19T05:29:14.730Z,46.15
2023-03-19T05:31:41.983Z,44.60
2023-03-19T05:34:09.120Z,35.47
2023-03-19T05:36:36.372Z,41.83
2023-03-19T05:39:04.051Z,43.30
2023-03-19T05:41:31.372Z,42.42
2023-03-19T05:43:58.667Z,42.20
2023-03-19T05:46:25.955Z,42.15
2023-03-19T05:48:53.189Z,44.15
2023-03-19T05:51:20.373Z,55.58
2023-03-19T05:53:47.566Z,46.45
2023-03-19T05:56:14.849Z,59.70
2023-03-19T05:58:42.049Z,60.35
2023-03-19T06:01:09.783Z,50.97
2023-03-19T06:03:37.281Z,45.05
2023-03-19T06:06:04.551Z,37.75
2023-03-19T06:08:32.014Z,35.13
2023-03-19T06:10:59.219Z,39.83
2023-03-19T06:13:27.054Z,55.97
2023-03-19T06:15:54.321Z,47.20
2023-03-19T06:18:21.539Z,46.47
2023-03-19T06:20:48.687Z,45.15
2023-03-19T06:23:16.486Z,42.00
2023-03-19T06:25:43.832Z,45.47
2023-03-19T06:28:11.649Z,43.55
2023-03-19T06:30:38.825Z,38.17
2023-03-19T06:33:06.504Z,43.35
2023-03-19T06:35:33.692Z,48.53
2023-03-19T06:38:00.961Z,53.72
2023-03-19T06:40:28.229Z,57.67
2023-03-19T06:42:55.441Z,45.45
2023-03-19T06:45:22.733Z,51.20
2023-03-19T06:47:53.409Z,54.65
2023-03-19T06:50:20.875Z,53.80
2023-03-19T06:52:48.126Z,51.80
2023-03-19T06:55:15.611Z,62.20
2023-03-19T06:57:42.870Z,64.93
2023-03-19T07:00:11.650Z,59.80
2023-03-19T07:02:38.940Z,51.95
2023-03-19T07:05:06.605Z,61.35
2023-03-19T07:07:33.941Z,90.95
2023-03-19T07:10:01.334Z,92.85
2023-03-19T07:12:28.686Z,86.15
2023-03-19T07:14:58.821Z,92.45
2023-03-19T07:17:26.495Z,75.15
2023-03-19T07:19:53.785Z,85.25
2023-03-19T07:22:21.833Z,64.05
2023-03-19T07:24:49.141Z,66.78
2023-03-19T07:27:16.565Z,72.45
2023-03-19T07:29:43.768Z,80.93
2023-03-19T07:32:11.778Z,75.00
2023-03-19T07:34:38.919Z,70.60
2023-03-19T07:37:06.249Z,66.45
2023-03-19T07:39:33.439Z,62.22
2023-03-19T07:42:00.946Z,73.65
2023-03-19T07:44:28.172Z,79.40
2023-03-19T07:46:55.500Z,60.13
2023-03-19T07:49:23.247Z,70.88
2023-03-19T07:51:50.536Z,72.88
2023-03-19T07:54:17.817Z,67.97
2023-03-19T07:56:45.020Z,70.22
2023-03-19T07:59:12.443Z,56.97
2023-03-19T08:01:39.676Z,51.38
2023-03-19T08:04:07.156Z,46.33
2023-03-19T08:06:34.402Z,49.97
2023-03-19T08:09:01.638Z,47.92
2023-03-19T08:11:30.078Z,41.35
2023-03-19T08:13:57.322Z,28.80
2023-03-19T08:16:24.885Z,24.88
2023-03-19T08:18:52.621Z,13.95
2023-03-19T08:21:20.027Z,14.18
2023-03-19T08:23:47.227Z,16.67
2023-03-19T08:26:15.733Z,17.58
2023-03-19T08:28:42.843Z,14.23
2023-03-19T08:31:11.509Z,14.27
2023-03-19T08:33:39.075Z,14.98
2023-03-19T08:36:07.758Z,11.90
2023-03-19T08:38:35.126Z,11.75
2023-03-19T08:41:04.291Z,11.75
2023-03-19T08:43:32.691Z,16.70
2023-03-19T08:46:00.332Z,11.98
2023-03-19T08:48:28.286Z,10.65
2023-03-19T08:51:00.154Z,14.68
2023-03-19T08:53:27.501Z,11.65
2023-03-19T08:55:56.505Z,10.30
2023-03-19T08:58:24.265Z,10.95
2023-03-19T09:00:51.848Z,10.52
2023-03-19T09:03:19.215Z,9.35
2023-03-19T09:05:46.443Z,8.95
2023-03-19T09:08:13.878Z,10.93
2023-03-19T09:10:41.163Z,9.10
2023-03-19T09:13:08.425Z,13.63
2023-03-19T09:15:36.199Z,10.38
2023-03-19T09:18:03.651Z,9.75
2023-03-19T09:20:30.849Z,9.20
2023-03-19T09:22:58.059Z,7.85
2023-03-19T09:25:25.445Z,12.10
2023-03-19T09:27:52.717Z,8.90
2023-03-19T09:30:19.973Z,10.40
2023-03-19T09:32:47.363Z,7.05
2023-03-19T09:35:14.604Z,8.55
2023-03-19T09:37:41.836Z,9.65
2023-03-19T09:40:14.033Z,7.30
2023-03-19T09:42:53.863Z,7.05
2023-03-19T09:45:21.358Z,7.63
2023-03-19T09:47:52.450Z,7.70
2023-03-19T09:50:21.253Z,8.43
2023-03-19T09:52:51.733Z,6.93
2023-03-19T09:55:27.991Z,6.63
2023-03-19T09:57:56.423Z,6.32
2023-03-19T10:00:25.882Z,5.53
2023-03-19T10:02:55.479Z,8.60
2023-03-19T10:05:28.862Z,7.93
2023-03-19T10:07:55.991Z,7.28
2023-03-19T10:10:32.672Z,6.35
2023-03-19T10:13:09.030Z,7.03
2023-03-19T10:15:41.098Z,6.43
2023-03-19T10:18:13.489Z,7.63
2023-03-19T10:20:41.174Z,11.02
2023-03-19T10:23:26.972Z,7.10
2023-03-19T10:25:55.842Z,7.40
2023-03-19T10:28:23.355Z,7.35
2023-03-19T10:31:02.594Z,11.13
2023-03-19T10:33:50.365Z,9.48
2023-03-19T10:36:20.264Z,7.18
2023-03-19T10:38:47.527Z,7.38
2023-03-19T10:41:33.603Z,9.00
2023-03-19T10:44:06.596Z,7.32
2023-03-19T10:46:40.351Z,8.48
2023-03-19T10:49:14.289Z,8.07
2023-03-19T10:51:44.327Z,6.15
2023-03-19T10:54:24.779Z,6.85
2023-03-19T10:56:52.709Z,6.28
2023-03-19T10:59:27.533Z,8.50
2023-03-19T11:01:59.176Z,7.78
2023-03-19T11:04:27.884Z,7.25
2023-03-19T11:07:03.591Z,7.32
2023-03-19T11:09:35.748Z,11.65
2023-03-19T11:12:38.960Z,7.80
2023-03-19T11:15:16.470Z,8.27
2023-03-19T11:17:47.815Z,7.10
2023-03-19T11:20:21.210Z,7.25
2023-03-19T11:22:49.562Z,7.88
2023-03-19T11:25:19.794Z,6.30
2023-03-19T11:27:58.584Z,7.85
2023-03-19T11:30:27.823Z,5.57
2023-03-19T11:33:04.281Z,5.88
2023-03-19T11:35:39.296Z,5.55
2023-03-19T11:38:12.344Z,6.85
2023-03-19T11:40:39.608Z,7.20
2023-03-19T11:43:09.790Z,7.07
2023-03-19T11:45:42.763Z,4.65
2023-03-19T11:48:39.376Z,7.05
2023-03-19T11:51:09.542Z,6.53
2023-03-19T11:53:39.311Z,5.68
2023-03-19T11:56:08.032Z,7.15
2023-03-19T11:58:38.271Z,6.30
2023-03-19T12:01:21.154Z,7.03
2023-03-19T12:04:08.083Z,5.22
2023-03-19T12:06:50.265Z,4.40
2023-03-19T12:09:17.503Z,6.83
2023-03-19T12:11:44.873Z,5.85
2023-03-19T12:14:22.675Z,6.40
2023-03-19T12:16:49.906Z,6.88
2023-03-19T12:19:17.140Z,8.48
2023-03-19T12:21:44.791Z,6.15
2023-03-19T12:24:12.053Z,7.72
2023-03-19T12:26:49.123Z,6.03
2023-03-19T12:29:30.893Z,5.45
2023-03-19T12:32:07.560Z,7.45
2023-03-19T12:34:36.347Z,8.43
2023-03-19T12:37:19.395Z,6.38
2023-03-19T12:42:17.533Z,5.75
2023-03-19T12:44:50.354Z,7.75
2023-03-19T12:47:31.355Z,7.13
2023-03-19T12:50:10.129Z,5.57
2023-03-19T12:52:38.876Z,6.85
2023-03-19T12:55:06.084Z,7.32
2023-03-19T12:57:36.603Z,6.28
2023-03-19T13:00:06.939Z,5.80
2023-03-19T13:02:37.272Z,8.52
2023-03-19T13:05:14.759Z,7.82
2023-03-19T13:07:48.047Z,7.18
2023-03-19T13:10:19.627Z,8.38
2023-03-19T13:12:47.837Z,6.32
2023-03-19T13:15:19.615Z,8.60
2023-03-19T13:17:57.115Z,8.00
2023-03-19T13:20:43.051Z,9.60
2023-03-19T13:23:12.636Z,11.27
2023-03-19T13:25:42.193Z,8.60
2023-03-19T13:28:13.859Z,8.55
2023-03-19T13:30:42.518Z,10.75
2023-03-19T13:33:22.873Z,8.20
2023-03-19T13:35:50.776Z,9.77
2023-03-19T13:38:20.592Z,9.25
2023-03-19T13:40:47.871Z,9.85
2023-03-19T13:43:42.931Z,7.75
2023-03-19T13:46:13.379Z,9.07
2023-03-19T13:48:43.959Z,8.90
2023-03-19T13:51:20.510Z,9.45
2023-03-19T13:54:09.649Z,10.07
2023-03-19T13:57:04.484Z,8.80
2023-03-19T13:59:36.258Z,10.98
2023-03-19T14:02:05.008Z,8.88
2023-03-19T14:04:37.968Z,9.98
2023-03-19T14:07:12.461Z,9.73
2023-03-19T14:09:48.583Z,8.38
2023-03-19T14:12:18.785Z,9.32
2023-03-19T14:14:51.197Z,9.43
2023-03-19T14:17:27.386Z,8.48
2023-03-19T14:19:55.378Z,11.15
2023-03-19T14:22:33.426Z,12.05
2023-03-19T14:25:15.216Z,12.35
2023-03-19T14:27:47.726Z,11.90
2023-03-19T14:30:21.157Z,9.48
2023-03-19T14:32:50.444Z,12.93
2023-03-19T14:35:20.631Z,10.82
2023-03-19T14:37:50.001Z,9.82
2023-03-19T14:40:18.692Z,8.57
2023-03-19T14:43:04.857Z,11.45
2023-03-19T14:45:38.133Z,7.70
2023-03-19T14:48:21.120Z,8.88
2023-03-19T14:50:58.220Z,8.90
2023-03-19T14:53:31.499Z,9.75
2023-03-19T14:56:03.399Z,7.93
2023-03-19T14:58:30.769Z,7.18
2023-03-19T15:00:57.992Z,8.07
2023-03-19T15:03:28.386Z,10.13
2023-03-19T15:06:00.893Z,8.68
2023-03-19T15:08:29.799Z,9.20
2023-03-19T15:10:56.989Z,11.80
2023-03-19T15:13:29.918Z,8.88
2023-03-19T15:16:16.050Z,9.48
2023-03-19T15:18:43.618Z,9.50
2023-03-19T15:21:10.819Z,9.82
2023-03-19T15:23:38.638Z,10.40
2023-03-19T15:26:08.688Z,8.98
2023-03-19T15:28:55.293Z,11.75
2023-03-19T15:31:37.496Z,9.77
2023-03-19T15:34:19.785Z,9.65
2023-03-19T15:36:47.285Z,8.85
2023-03-19T15:39:16.361Z,8.30
2023-03-19T15:41:46.733Z,7.20
2023-03-19T15:44:17.607Z,8.60
2023-03-19T15:46:45.605Z,7.68
2023-03-19T15:49:17.371Z,7.20
2023-03-19T15:51:45.902Z,8.77
2023-03-19T15:54:13.137Z,8.40
2023-03-19T15:56:40.361Z,8.45
2023-03-19T15:59:07.622Z,12.52
2023-03-19T16:01:36.072Z,10.23
2023-03-19T16:04:06.933Z,10.60
2023-03-19T16:06:39.517Z,14.82
2023-03-19T16:09:24.976Z,11.75
2023-03-19T16:11:52.495Z,11.93
2023-03-19T16:14:25.296Z,16.65
2023-03-19T16:19:39.002Z,8.85
2023-03-19T16:22:16.524Z,8.48
2023-03-19T16:24:45.685Z,10.35
2023-03-19T16:27:17.476Z,11.52
2023-03-19T16:29:46.666Z,12.85
2023-03-19T16:32:24.171Z,12.20
2023-03-19T16:34:52.600Z,17.20
2023-03-19T16:37:33.047Z,12.20
2023-03-19T16:40:23.740Z,12.82
2023-03-19T16:42:56.204Z,15.27
2023-03-19T16:45:34.816Z,15.77
2023-03-19T16:48:06.131Z,14.73
2023-03-19T16:50:41.012Z,13.30
2023-03-19T16:53:34.737Z,13.25
2023-03-19T16:56:03.458Z,16.35
2023-03-19T16:58:34.897Z,19.35
2023-03-19T17:01:02.120Z,15.38
2023-03-19T17:03:30.261Z,14.48
2023-03-19T17:05:57.520Z,16.67
2023-03-19T17:08:26.193Z,18.10
2023-03-19T17:10:54.136Z,12.13
2023-03-19T17:13:31.977Z,9.48
2023-03-19T17:16:02.706Z,11.98
2023-03-19T17:18:31.137Z,13.93
2023-03-19T17:21:02.246Z,14.60
2023-03-19T17:23:30.422Z,12.48
2023-03-19T17:25:58.197Z,13.57
2023-03-19T17:28:25.640Z,12.57
2023-03-19T17:30:52.870Z,16.02
2023-03-19T17:33:23.137Z,12.40
2023-03-19T17:35:50.904Z,12.85
2023-03-19T17:38:18.782Z,12.88
2023-03-19T17:40:46.678Z,12.43
2023-03-19T17:43:14.373Z,14.45
2023-03-19T17:45:46.653Z,16.58
2023-03-19T17:48:22.133Z,18.63
2023-03-19T17:50:49.776Z,16.40
2023-03-19T17:53:18.569Z,17.50
2023-03-19T17:55:46.790Z,20.42
2023-03-19T17:58:21.090Z,19.85
2023-03-19T18:00:49.139Z,19.70
2023-03-19T18:03:18.156Z,22.73
2023-03-19T18:05:45.754Z,19.50
2023-03-19T18:08:17.404Z,15.25
2023-03-19T18:10:44.574Z,18.17
2023-03-19T18:13:12.089Z,19.45
2023-03-19T18:15:41.034Z,20.75
2023-03-19T18:18:13.758Z,17.35
2023-03-19T18:20:41.169Z,17.80
2023-03-19T18:23:08.757Z,19.63
2023-03-19T18:25:36.048Z,22.08
2023-03-19T18:28:04.207Z,20.60
2023-03-19T18:30:33.169Z,20.67
2023-03-19T18:33:02.661Z,20.50
2023-03-19T18:35:31.746Z,21.60
2023-03-19T18:37:59.281Z,19.15
2023-03-19T18:40:28.327Z,23.15
2023-03-19T18:42:55.575Z,22.73
2023-03-19T18:45:23.416Z,23.83
2023-03-19T18:47:51.914Z,23.60
2023-03-19T18:50:23.781Z,18.33
2023-03-19T18:52:52.616Z,20.80
2023-03-19T18:55:21.419Z,19.17
2023-03-19T18:57:53.584Z,18.63
2023-03-19T19:00:22.678Z,22.10
2023-03-19T19:02:50.046Z,22.02
2023-03-19T19:05:23.628Z,20.48
2023-03-19T19:07:51.652Z,20.27
2023-03-19T19:10:19.286Z,20.33
2023-03-19T19:12:49.347Z,21.80
2023-03-19T19:15:21.346Z,22.02
2023-03-19T19:17:48.918Z,21.92
2023-03-19T19:20:34.329Z,24.45
2023-03-19T19:23:01.642Z,21.85
2023-03-19T19:25:29.297Z,20.98
2023-03-19T19:28:26.678Z,22.80
2023-03-19T19:30:58.560Z,20.38
2023-03-19T19:33:27.983Z,19.90
2023-03-19T19:35:56.395Z,22.00
2023-03-19T19:38:23.610Z,21.63
2023-03-19T19:40:52.810Z,21.25
2023-03-19T19:43:24.370Z,22.00
2023-03-19T19:45:52.880Z,18.70
2023-03-19T19:48:21.745Z,22.63
2023-03-19T19:50:49.361Z,23.10
2023-03-19T19:53:19.291Z,19.70
2023-03-19T19:55:47.136Z,18.38
2023-03-19T19:58:41.796Z,20.77
2023-03-19T20:01:15.017Z,21.17
2023-03-19T20:03:42.318Z,20.38
2023-03-19T20:06:09.812Z,22.17
2023-03-19T20:08:37.052Z,20.00
2023-03-19T20:11:04.480Z,24.63
2023-03-19T20:13:35.276Z,25.55
2023-03-19T20:16:03.156Z,23.13
2023-03-19T20:18:32.913Z,23.13
2023-03-19T20:21:00.175Z,29.15
2023-03-19T20:23:27.355Z,26.55
2023-03-19T20:25:55.210Z,26.35
2023-03-19T20:28:22.400Z,23.77
2023-03-19T20:30:50.060Z,22.38
2023-03-19T20:33:18.213Z,25.85
2023-03-19T20:35:46.633Z,26.63
2023-03-19T20:38:14.589Z,24.20
2023-03-19T20:40:46.001Z,24.02
2023-03-19T20:43:27.965Z,29.08
2023-03-19T20:45:57.170Z,25.52
2023-03-19T20:48:25.266Z,31.13
2023-03-19T20:50:52.652Z,28.70
2023-03-19T20:53:19.919Z,25.95
2023-03-19T20:55:47.931Z,24.75
2023-03-19T20:58:17.498Z,28.80
2023-03-19T21:00:44.954Z,27.40
2023-03-19T21:03:17.057Z,26.40
2023-03-19T21:05:44.238Z,20.63
2023-03-19T21:08:14.704Z,25.50
2023-03-19T21:10:43.307Z,24.90
2023-03-19T21:13:13.495Z,21.80
2023-03-19T21:15:41.868Z,25.70
2023-03-19T21:18:09.981Z,29.05
2023-03-19T21:20:41.111Z,27.38
2023-03-19T21:23:13.147Z,30.05
2023-03-19T21:25:40.835Z,30.10
2023-03-19T21:28:12.200Z,30.48
2023-03-19T21:30:42.605Z,36.85
2023-03-19T21:33:20.300Z,32.65
2023-03-19T21:35:47.499Z,38.97
2023-03-19T21:38:14.723Z,35.45
2023-03-19T21:40:42.038Z,38.53
2023-03-19T21:43:16.239Z,37.95
2023-03-19T21:45:43.932Z,37.22
2023-03-19T21:48:21.749Z,34.63
2023-03-19T21:50:50.111Z,33.80
2023-03-19T21:53:17.782Z,37.63
2023-03-19T21:55:45.521Z,33.17
2023-03-19T21:58:16.828Z,34.42
2023-03-19T22:00:44.473Z,29.95
2023-03-19T22:03:14.994Z,34.80
2023-03-19T22:05:42.307Z,34.88
2023-03-19T22:08:09.426Z,39.28
2023-03-19T22:10:36.955Z,38.08
2023-03-19T22:13:04.548Z,39.95
2023-03-19T22:15:36.366Z,39.15
2023-03-19T22:18:07.815Z,42.57
2023-03-19T22:20:35.009Z,46.85
2023-03-19T22:23:02.563Z,44.97
2023-03-19T22:25:32.149Z,42.35
2023-03-19T22:27:59.773Z,45.85
2023-03-19T22:30:26.964Z,43.20
2023-03-19T22:32:55.702Z,45.45
2023-03-19T22:35:23.235Z,48.80
2023-03-19T22:37:50.730Z,49.00
2023-03-19T22:40:18.853Z,46.60
2023-03-19T22:42:47.332Z,44.65
2023-03-19T22:45:16.161Z,45.42
2023-03-19T22:47:43.499Z,53.33
2023-03-19T22:50:18.214Z,49.45
2023-03-19T22:52:45.970Z,51.55
2023-03-19T22:55:13.280Z,45.25
2023-03-19T22:57:40.950Z,54.78
2023-03-19T23:00:12.224Z,55.35
2023-03-19T23:02:40.228Z,56.83
2023-03-19T23:05:27.717Z,55.92
2023-03-19T23:07:55.145Z,62.67
2023-03-19T23:10:23.678Z,60.78
2023-03-19T23:12:50.905Z,71.13
2023-03-19T23:15:18.174Z,68.80
2023-03-19T23:17:46.451Z,77.20
2023-03-19T23:20:18.441Z,78.97
2023-03-19T23:22:46.712Z,75.18
2023-03-19T23:25:14.778Z,76.88
2023-03-19T23:27:42.503Z,80.05
2023-03-19T23:30:19.641Z,79.20
2023-03-19T23:32:47.651Z,78.07
2023-03-19T23:35:19.522Z,83.63
2023-03-19T23:37:46.815Z,85.10
2023-03-19T23:40:14.760Z,85.78
2023-03-19T23:42:46.691Z,77.15
2023-03-19T23:45:28.927Z,88.90
2023-03-19T23:47:58.038Z,78.82
2023-03-19T23:50:25.278Z,80.95
2023-03-19T23:52:52.800Z,89.28
2023-03-19T23:55:20.086Z,82.18
2023-03-19T23:57:47.880Z,89.53
